Relevés horaires Matro (Suisse)


Relevés horaires à Matro - Dimanche 26 Juin 2022
Heure UTC1 Température [°C] Vent [km/h] Hum. [%] Pres.4 [hPa] Visi. [Km] Nébu. [octa] Préc.5 [mm] Cond.
2m. Res. Ros. Dir.2 Vit. Moy. Raf.3
23:00 10.9 7 9.8 SSE 42.6 -- 57.4 93 850(0.2/3h) -- -- -- --
22:00 10.2 6.6 9.1 SSE 33.3 -- 55.6 93 850(0.8/3h) -- -- -- --
21:00 11.0 7 10.3 SSE 46.3 -- 64.8 95 850(0.5/3h) -- -- -- --
20:00 11.5 7.8 9.5 SE 44.4 -- 51.9 88 850(0.0/3h) -- -- -- --
19:00 11.3 8 9.5 SSE 35.2 -- 48.2 89 850(-0.3/3h) -- -- -- --
18:00 11.5 8 9.1 SSE 38.9 -- 46.3 85 850(-0.4/3h) -- -- -- --
17:00 11.6 9.1 8.8 SSE 24.1 -- 44.4 83 850(-0.1/3h) -- -- -- --
16:00 11.8 9.1 7.4 SSE 27.8 -- 46.3 74 850(0.1/3h) -- -- -- --
15:00 11.5 8.7 8.0 SSE 27.8 -- 42.6 79 850(0.2/3h) -- -- -- --
14:00 11.4 8.8 8.4 SSE 24.1 -- 38.9 82 850(0.2/3h) -- -- -- --
13:00 11.0 8.3 8.0 SSE 24.1 -- 42.6 82 850(0.2/3h) -- -- -- --
12:00 11.0 8 8.8 SSE 27.8 -- 48.2 86 850(0.3/3h) -- -- -- --
11:00 10.4 7.2 9.0 SSE 27.8 -- 44.4 91 850(0.5/3h) -- -- -- --
10:00 9.4 5.5 8.9 SSE 35.2 -- 48.2 97 850(0.7/3h) -- -- -- --
09:00 9.1 5.1 8.3 SE 35.2 -- 46.3 95 850(0.8/3h) -- -- -- --
08:00 8.7 5.3 7.7 SSE 24.1 -- 46.3 93 850(0.9/3h) -- -- -- --
07:00 8.8 5.8 6.7 SSE 20.4 -- 27.8 87 850(0.8/3h) -- -- -- --
06:00 9.1 6.2 4.6 SSE 20.4 -- 33.3 73 850(0.7/3h) -- -- -- --
05:00 9.1 5.7 3.7 SSE 25.9 -- 29.6 69 850(0.3/3h) -- -- -- --
04:00 9.3 6.6 2.8 SE 18.5 -- 24.1 64 850(-0.1/3h) -- -- -- --
03:00 9.5 7.3 2.5 ESE 14.8 -- 22.2 62 850(-0.3/3h) -- -- -- --
02:00 9.5 6.9 4.4 SE 18.5 -- 20.4 70 850(0.0/3h) -- -- -- --
01:00 9.2 6.7 6.4 SSE 16.7 -- 22.2 83 850(0.2/3h) -- -- -- --
00:00 9.1 6 6.6 SSE 22.2 -- 33.3 84 850(0.3/3h) -- -- -- --

1 Coordinated Universal Time. Actuellement il est 03:00 locale et 01:00 UTC.

2 Le vent souffle depuis la direction indiquée vers la direction oposée.

3 Les rafales max. sont disponible 40 min après l'heure du relevé.

4 Pour les stations d'altitude (plus de 600m) le géopotentiel du niveau le plus proche de la pression obligatoire est indiqué.

5 Les stations disposant d'un diffuseur peuvent indiquer "trace". Cela signifie que des précipitations ont touchés le sol mais que la quantité est inférieure à 0.1 mm.

Copyright

Les données affichées sur cette page sont la propriété exclusive de Météo Suisse.

Récapitulatif de la journée
Température [°C] Vent [km/h] Ensoleillement4 [h] Precipitations totale5 [mm] Pression [Hpa]
Min1 Max.2 Moy.3 Max. Min Max.
9.0 12.0 0 64.8 2 h 18 min 0 850.0 850.0

1 Température minimale relevée entre 18:00 UTC la veille et 18:00 UTC le jour donné.

2 Température maximale relevée entre 06:00 UTC le jour donné et 06:00 UTC le lendemain.

3 Vent moyen de la journée basé sur les relevés horaires.

4 Ensoleillement en heures relevé entre 06:00 UTC la veille et 06:00 UTC le jour donné.

5 Précipitations totales tombées entre 06:00 UTC la jour donné et 06:00 UTC le lendemain.

Graphiques horaires